MV Fenella — A8YX7 — position and weather

sailwx.info

Track history (hours):
 
Tides and Currents Weather Stations Pressure Air Temp Water Temp Dewpoint Dewpoint Depression Visibility Wind Speed Wind Dir Waves Ship Positions

MV Fenella

Last reported at 2014-Sep-11 18:25 UTC. Time now 2014-Oct-01 20:33 UTC.
Position N 43°29' W 069°58'.
Warning: this ship's position is 20 days out of date.

Length 159 m; draft 10.1 m.

Type: Cargo ship. MMSI: 636092234.

Date/timePositionNaut miles runAvg speedWind from/ knotsBaromVisibWave heightAir tempDewpointWater temp
2014-Sep-11 18:25N 43°29' W 069°58'1011.2
2014-Sep-11 17:33N 43°35' W 070°09'6 5.7
2014-Sep-11 16:32N 43°40' W 070°13'0 0.0
2014-Sep-11 15:26N 43°40' W 070°13'0 0.0
2014-Sep-11 14:26N 43°40' W 070°13'0 0.0
2014-Sep-11 12:14N 43°40' W 070°13'0 0.0
2014-Sep-11 11:32N 43°40' W 070°13'2 2.0
2014-Sep-11 10:32N 43°39' W 070°16'2 0.0
2014-Sep-09 13:25N 43°38' W 070°13'9 8.2
2014-Sep-09 12:17N 43°32' W 070°03'5 6.6
2014-Sep-09 11:33N 43°33' W 069°56'1 0.2
2014-Sep-09 07:07N 43°33' W 069°55'0 0.1
2014-Sep-09 05:31N 43°33' W 069°55'1 0.6
2014-Sep-09 04:16N 43°33' W 069°55'0 0.2
2014-Sep-09 03:31N 43°33' W 069°55'1 1.4
2014-Sep-09 02:33N 43°32' W 069°55'1211.3
2014-Sep-09 01:30N 43°27' W 069°40'  
Track history (hours):
 
Tides and Currents Weather Stations Pressure Air Temp Water Temp Dewpoint Dewpoint Depression Visibility Wind Speed Wind Dir Waves Ship Positions

MV Fenella

Last reported at 2014-Sep-11 18:25 UTC. Time now 2014-Oct-01 20:33 UTC.
Position N 43°29' W 069°58'.
Warning: this ship's position is 20 days out of date.

Length 159 m; draft 10.1 m.

Type: Cargo ship. MMSI: 636092234.

Date/timePositionNaut miles runAvg speedWind from/ knotsBaromVisibWave heightAir tempDewpointWater temp
2014-Sep-11 18:25N 43°29' W 069°58'1011.2
2014-Sep-11 17:33N 43°35' W 070°09'6 5.7
2014-Sep-11 16:32N 43°40' W 070°13'0 0.0
2014-Sep-11 15:26N 43°40' W 070°13'0 0.0
2014-Sep-11 14:26N 43°40' W 070°13'0 0.0
2014-Sep-11 12:14N 43°40' W 070°13'0 0.0
2014-Sep-11 11:32N 43°40' W 070°13'2 2.0
2014-Sep-11 10:32N 43°39' W 070°16'2 0.0
2014-Sep-09 13:25N 43°38' W 070°13'9 8.2
2014-Sep-09 12:17N 43°32' W 070°03'5 6.6
2014-Sep-09 11:33N 43°33' W 069°56'1 0.2
2014-Sep-09 07:07N 43°33' W 069°55'0 0.1
2014-Sep-09 05:31N 43°33' W 069°55'1 0.6
2014-Sep-09 04:16N 43°33' W 069°55'0 0.2
2014-Sep-09 03:31N 43°33' W 069°55'1 1.4
2014-Sep-09 02:33N 43°32' W 069°55'1211.3
2014-Sep-09 01:30N 43°27' W 069°40'  

Dump ship's entire track history